Terminal Aerodrome Forecast
Issued by NWS

Home | Current Version | Previous Version | Text Only | Print | Product List | Glossary Off
Versions: 1 2 3 4 5 6 7 8 9 10 11 12 13 14 15 16

000
FTUS42 KMHX 240537
TAFPGV
TAF
KPGV 240537Z 2406/2506 10015KT 6SM RA OVC025
     FM240900 09013G18KT 4SM +RA OVC012 WS020/12040KT
     FM241300 11017G27KT 2SM +RA VCTS OVC010CB WS020/12040KT
      TEMPO 2413/2416 BKN008CB
     FM241800 12015G24KT 6SM SHRA VCTS BKN020CB
     FM250500 19007KT P6SM BKN250
      AMD LTD TO CLD VIS AND WIND=

USA.gov is the U.S. government's official web portal to all federal, state and local government web resources and services.